sensor_id;sensor_type;location;lat;lon;timestamp;pressure;altitude;pressure_sealevel;temperature;humidity
48364;BME280;34170;54.364;18.582;2023-04-15T00:01:43;99787.97;;;10.15;100.00
48364;BME280;34170;54.364;18.582;2023-04-15T00:04:11;99795.22;;;9.97;100.00
48364;BME280;34170;54.364;18.582;2023-04-15T00:06:38;99778.31;;;10.04;100.00
48364;BME280;34170;54.364;18.582;2023-04-15T00:09:06;99775.53;;;9.78;100.00
48364;BME280;34170;54.364;18.582;2023-04-15T00:11:33;99799.28;;;10.01;100.00
48364;BME280;34170;54.364;18.582;2023-04-15T00:14:01;99795.06;;;9.98;100.00
48364;BME280;34170;54.364;18.582;2023-04-15T00:16:29;99787.84;;;9.99;100.00
48364;BME280;34170;54.364;18.582;2023-04-15T00:18:56;99743.50;;;9.77;100.00
48364;BME280;34170;54.364;18.582;2023-04-15T00:21:24;99754.66;;;10.08;100.00
48364;BME280;34170;54.364;18.582;2023-04-15T00:23:53;99754.38;;;9.93;100.00
48364;BME280;34170;54.364;18.582;2023-04-15T00:26:21;99761.03;;;9.89;100.00
48364;BME280;34170;54.364;18.582;2023-04-15T00:28:49;99770.34;;;10.13;100.00
48364;BME280;34170;54.364;18.582;2023-04-15T00:31:16;99770.94;;;10.06;100.00
48364;BME280;34170;54.364;18.582;2023-04-15T00:33:45;99769.41;;;10.04;100.00
48364;BME280;34170;54.364;18.582;2023-04-15T00:36:13;99750.78;;;9.84;100.00
48364;BME280;34170;54.364;18.582;2023-04-15T00:38:40;99755.50;;;9.54;100.00
48364;BME280;34170;54.364;18.582;2023-04-15T00:41:08;99753.44;;;9.48;100.00
48364;BME280;34170;54.364;18.582;2023-04-15T00:43:37;99751.06;;;9.99;100.00
48364;BME280;34170;54.364;18.582;2023-04-15T00:46:05;99781.25;;;9.75;100.00
48364;BME280;34170;54.364;18.582;2023-04-15T00:48:33;99795.41;;;9.85;100.00
48364;BME280;34170;54.364;18.582;2023-04-15T00:51:00;99764.28;;;10.10;100.00
48364;BME280;34170;54.364;18.582;2023-04-15T00:53:28;99783.00;;;10.02;100.00
48364;BME280;34170;54.364;18.582;2023-04-15T00:55:56;99749.56;;;9.79;100.00
48364;BME280;34170;54.364;18.582;2023-04-15T00:58:25;99746.09;;;9.86;100.00
48364;BME280;34170;54.364;18.582;2023-04-15T01:00:54;99778.16;;;10.24;100.00
48364;BME280;34170;54.364;18.582;2023-04-15T01:03:23;99777.16;;;10.25;100.00
48364;BME280;34170;54.364;18.582;2023-04-15T01:05:52;99779.63;;;10.00;100.00
48364;BME280;34170;54.364;18.582;2023-04-15T01:08:27;99763.41;;;10.10;100.00
48364;BME280;34170;54.364;18.582;2023-04-15T01:10:56;99774.69;;;10.32;100.00
48364;BME280;34170;54.364;18.582;2023-04-15T01:13:25;99759.97;;;10.18;100.00
48364;BME280;34170;54.364;18.582;2023-04-15T01:15:53;99768.94;;;10.08;100.00
48364;BME280;34170;54.364;18.582;2023-04-15T01:18:23;99778.56;;;9.93;100.00
48364;BME280;34170;54.364;18.582;2023-04-15T01:20:50;99780.75;;;9.98;100.00
48364;BME280;34170;54.364;18.582;2023-04-15T01:23:19;99780.47;;;10.01;100.00
48364;BME280;34170;54.364;18.582;2023-04-15T01:25:48;99786.53;;;10.03;100.00
48364;BME280;34170;54.364;18.582;2023-04-15T01:28:16;99781.09;;;9.95;100.00
48364;BME280;34170;54.364;18.582;2023-04-15T01:30:43;99793.44;;;10.05;100.00
48364;BME280;34170;54.364;18.582;2023-04-15T01:33:11;99790.59;;;9.89;100.00
48364;BME280;34170;54.364;18.582;2023-04-15T01:35:57;99790.19;;;9.48;100.00
48364;BME280;34170;54.364;18.582;2023-04-15T01:38:26;99775.69;;;9.59;100.00
48364;BME280;34170;54.364;18.582;2023-04-15T01:40:53;99788.28;;;9.76;100.00
48364;BME280;34170;54.364;18.582;2023-04-15T01:43:22;99786.53;;;9.85;100.00
48364;BME280;34170;54.364;18.582;2023-04-15T01:45:51;99794.56;;;9.85;100.00
48364;BME280;34170;54.364;18.582;2023-04-15T01:48:20;99777.34;;;9.87;100.00
48364;BME280;34170;54.364;18.582;2023-04-15T01:50:48;99780.72;;;9.89;100.00
48364;BME280;34170;54.364;18.582;2023-04-15T01:53:17;99785.78;;;10.10;100.00
48364;BME280;34170;54.364;18.582;2023-04-15T01:55:47;99785.38;;;9.87;100.00
48364;BME280;34170;54.364;18.582;2023-04-15T01:58:15;99795.88;;;10.17;100.00
48364;BME280;34170;54.364;18.582;2023-04-15T02:00:44;99783.84;;;10.03;100.00
48364;BME280;34170;54.364;18.582;2023-04-15T02:03:13;99781.63;;;9.98;100.00
48364;BME280;34170;54.364;18.582;2023-04-15T02:05:42;99802.88;;;9.91;100.00
48364;BME280;34170;54.364;18.582;2023-04-15T02:08:11;99783.78;;;9.95;100.00
48364;BME280;34170;54.364;18.582;2023-04-15T02:10:40;99792.38;;;9.98;100.00
48364;BME280;34170;54.364;18.582;2023-04-15T02:13:09;99762.84;;;9.80;100.00
48364;BME280;34170;54.364;18.582;2023-04-15T02:15:38;99789.34;;;9.83;100.00
48364;BME280;34170;54.364;18.582;2023-04-15T02:18:07;99749.56;;;9.79;100.00
48364;BME280;34170;54.364;18.582;2023-04-15T02:20:36;99729.59;;;9.81;100.00
48364;BME280;34170;54.364;18.582;2023-04-15T02:23:05;99787.00;;;9.80;100.00
48364;BME280;34170;54.364;18.582;2023-04-15T02:25:36;99767.81;;;9.93;100.00
48364;BME280;34170;54.364;18.582;2023-04-15T02:28:06;99778.06;;;9.80;100.00
48364;BME280;34170;54.364;18.582;2023-04-15T02:30:35;99770.03;;;9.98;100.00
48364;BME280;34170;54.364;18.582;2023-04-15T02:33:03;99788.66;;;9.99;100.00
48364;BME280;34170;54.364;18.582;2023-04-15T02:35:32;99777.75;;;10.19;100.00
48364;BME280;34170;54.364;18.582;2023-04-15T02:38:01;99781.38;;;10.09;100.00
48364;BME280;34170;54.364;18.582;2023-04-15T02:40:30;99778.16;;;9.88;100.00
48364;BME280;34170;54.364;18.582;2023-04-15T02:42:59;99793.44;;;10.05;100.00
48364;BME280;34170;54.364;18.582;2023-04-15T02:45:28;99785.06;;;10.08;100.00
48364;BME280;34170;54.364;18.582;2023-04-15T02:48:01;99767.19;;;9.81;100.00
48364;BME280;34170;54.364;18.582;2023-04-15T02:50:34;99756.00;;;9.68;100.00
48364;BME280;34170;54.364;18.582;2023-04-15T02:53:03;99783.28;;;9.63;100.00
48364;BME280;34170;54.364;18.582;2023-04-15T02:55:32;99786.06;;;9.71;100.00
48364;BME280;34170;54.364;18.582;2023-04-15T02:58:01;99787.31;;;9.95;100.00
48364;BME280;34170;54.364;18.582;2023-04-15T03:04:50;99790.09;;;9.58;100.00
48364;BME280;34170;54.364;18.582;2023-04-15T03:07:19;99797.66;;;9.72;100.00
48364;BME280;34170;54.364;18.582;2023-04-15T03:09:48;99794.34;;;9.96;100.00
48364;BME280;34170;54.364;18.582;2023-04-15T03:12:17;99795.94;;;9.89;100.00
48364;BME280;34170;54.364;18.582;2023-04-15T03:14:46;99801.13;;;10.00;100.00
48364;BME280;34170;54.364;18.582;2023-04-15T03:17:16;99772.25;;;9.66;100.00
48364;BME280;34170;54.364;18.582;2023-04-15T03:19:45;99759.09;;;9.45;100.00
48364;BME280;34170;54.364;18.582;2023-04-15T03:22:14;99790.81;;;9.78;100.00
48364;BME280;34170;54.364;18.582;2023-04-15T03:24:43;99770.88;;;9.62;100.00
48364;BME280;34170;54.364;18.582;2023-04-15T03:27:12;99803.50;;;10.03;100.00
48364;BME280;34170;54.364;18.582;2023-04-15T03:29:41;99800.88;;;10.11;100.00
48364;BME280;34170;54.364;18.582;2023-04-15T03:32:10;99809.47;;;10.15;100.00
48364;BME280;34170;54.364;18.582;2023-04-15T03:34:40;99770.25;;;9.86;100.00
48364;BME280;34170;54.364;18.582;2023-04-15T03:37:09;99792.66;;;10.13;100.00
48364;BME280;34170;54.364;18.582;2023-04-15T03:39:38;99802.88;;;10.09;100.00
48364;BME280;34170;54.364;18.582;2023-04-15T03:42:07;99778.75;;;9.82;100.00
48364;BME280;34170;54.364;18.582;2023-04-15T03:44:35;99799.25;;;10.19;100.00
48364;BME280;34170;54.364;18.582;2023-04-15T03:47:04;99797.59;;;10.18;100.00
48364;BME280;34170;54.364;18.582;2023-04-15T03:49:33;99806.63;;;10.17;100.00
48364;BME280;34170;54.364;18.582;2023-04-15T03:52:01;99777.47;;;10.04;100.00
48364;BME280;34170;54.364;18.582;2023-04-15T03:54:30;99775.22;;;10.17;100.00
48364;BME280;34170;54.364;18.582;2023-04-15T03:56:59;99789.59;;;10.26;100.00
48364;BME280;34170;54.364;18.582;2023-04-15T03:59:27;99790.94;;;10.48;100.00
48364;BME280;34170;54.364;18.582;2023-04-15T04:01:56;99801.69;;;10.30;100.00
48364;BME280;34170;54.364;18.582;2023-04-15T04:04:25;99802.63;;;10.21;100.00
48364;BME280;34170;54.364;18.582;2023-04-15T04:06:54;99783.38;;;10.43;100.00
48364;BME280;34170;54.364;18.582;2023-04-15T04:09:22;99801.72;;;9.94;100.00
48364;BME280;34170;54.364;18.582;2023-04-15T04:11:51;99800.97;;;10.20;100.00
48364;BME280;34170;54.364;18.582;2023-04-15T04:14:20;99805.19;;;10.04;100.00
48364;BME280;34170;54.364;18.582;2023-04-15T04:16:54;99781.13;;;10.21;100.00
48364;BME280;34170;54.364;18.582;2023-04-15T04:19:23;99784.19;;;10.26;100.00
48364;BME280;34170;54.364;18.582;2023-04-15T04:21:51;99811.84;;;10.18;100.00
48364;BME280;34170;54.364;18.582;2023-04-15T04:24:21;99785.94;;;9.91;100.00
48364;BME280;34170;54.364;18.582;2023-04-15T04:26:49;99812.41;;;10.04;100.00
48364;BME280;34170;54.364;18.582;2023-04-15T04:29:18;99816.06;;;10.03;100.00
48364;BME280;34170;54.364;18.582;2023-04-15T04:31:47;99809.63;;;10.14;100.00
48364;BME280;34170;54.364;18.582;2023-04-15T04:34:16;99817.13;;;10.28;100.00
48364;BME280;34170;54.364;18.582;2023-04-15T04:36:44;99810.41;;;10.24;100.00
48364;BME280;34170;54.364;18.582;2023-04-15T04:39:13;99814.00;;;10.15;100.00
48364;BME280;34170;54.364;18.582;2023-04-15T04:41:42;99806.38;;;10.28;100.00
48364;BME280;34170;54.364;18.582;2023-04-15T04:44:10;99802.19;;;9.89;100.00
48364;BME280;34170;54.364;18.582;2023-04-15T04:46:39;99815.00;;;10.14;100.00
48364;BME280;34170;54.364;18.582;2023-04-15T04:49:08;99785.44;;;10.14;100.00
48364;BME280;34170;54.364;18.582;2023-04-15T04:51:37;99814.41;;;10.38;100.00
48364;BME280;34170;54.364;18.582;2023-04-15T04:54:05;99816.00;;;10.48;100.00
48364;BME280;34170;54.364;18.582;2023-04-15T04:56:34;99794.91;;;10.18;100.00
48364;BME280;34170;54.364;18.582;2023-04-15T04:59:04;99787.22;;;10.05;100.00
48364;BME280;34170;54.364;18.582;2023-04-15T05:01:32;99826.06;;;10.10;100.00
48364;BME280;34170;54.364;18.582;2023-04-15T05:04:01;99824.59;;;10.52;100.00
48364;BME280;34170;54.364;18.582;2023-04-15T05:06:32;99795.97;;;10.07;100.00
48364;BME280;34170;54.364;18.582;2023-04-15T05:09:02;99824.81;;;10.23;100.00
48364;BME280;34170;54.364;18.582;2023-04-15T05:11:30;99818.06;;;10.01;100.00
48364;BME280;34170;54.364;18.582;2023-04-15T05:13:59;99830.91;;;10.25;100.00
48364;BME280;34170;54.364;18.582;2023-04-15T05:16:29;99831.69;;;10.35;100.00
48364;BME280;34170;54.364;18.582;2023-04-15T05:18:58;99818.38;;;10.34;100.00
48364;BME280;34170;54.364;18.582;2023-04-15T05:21:27;99834.03;;;10.20;100.00
48364;BME280;34170;54.364;18.582;2023-04-15T05:23:56;99831.88;;;10.24;100.00
48364;BME280;34170;54.364;18.582;2023-04-15T05:26:24;99830.50;;;10.56;100.00
48364;BME280;34170;54.364;18.582;2023-04-15T05:28:54;99834.28;;;10.45;100.00
48364;BME280;34170;54.364;18.582;2023-04-15T05:31:23;99838.50;;;10.47;100.00
48364;BME280;34170;54.364;18.582;2023-04-15T05:33:52;99833.50;;;10.53;100.00
48364;BME280;34170;54.364;18.582;2023-04-15T05:36:21;99838.34;;;10.49;100.00
48364;BME280;34170;54.364;18.582;2023-04-15T05:38:49;99802.19;;;10.43;100.00
48364;BME280;34170;54.364;18.582;2023-04-15T05:41:18;99829.63;;;10.73;100.00
48364;BME280;34170;54.364;18.582;2023-04-15T05:43:47;99831.00;;;10.77;100.00
48364;BME280;34170;54.364;18.582;2023-04-15T05:46:15;99837.13;;;10.87;100.00
48364;BME280;34170;54.364;18.582;2023-04-15T05:48:44;99830.81;;;11.05;100.00
48364;BME280;34170;54.364;18.582;2023-04-15T05:51:13;99808.00;;;11.09;100.00
48364;BME280;34170;54.364;18.582;2023-04-15T05:53:42;99817.34;;;11.31;99.33
48364;BME280;34170;54.364;18.582;2023-04-15T05:56:11;99828.69;;;10.82;100.00
48364;BME280;34170;54.364;18.582;2023-04-15T05:58:39;99831.41;;;11.17;100.00
48364;BME280;34170;54.364;18.582;2023-04-15T06:01:08;99827.44;;;10.95;100.00
48364;BME280;34170;54.364;18.582;2023-04-15T06:03:37;99838.34;;;11.28;100.00
48364;BME280;34170;54.364;18.582;2023-04-15T06:06:06;99841.19;;;11.26;100.00
48364;BME280;34170;54.364;18.582;2023-04-15T06:08:35;99835.59;;;11.19;100.00
48364;BME280;34170;54.364;18.582;2023-04-15T06:11:04;99829.88;;;11.49;98.70
48364;BME280;34170;54.364;18.582;2023-04-15T06:13:33;99818.03;;;11.33;98.45
48364;BME280;34170;54.364;18.582;2023-04-15T06:16:02;99840.28;;;11.09;100.00
48364;BME280;34170;54.364;18.582;2023-04-15T06:18:31;99843.22;;;10.98;100.00
48364;BME280;34170;54.364;18.582;2023-04-15T06:21:00;99835.75;;;11.10;100.00
48364;BME280;34170;54.364;18.582;2023-04-15T06:23:29;99863.75;;;11.25;100.00
48364;BME280;34170;54.364;18.582;2023-04-15T06:25:57;99850.47;;;11.32;99.74
48364;BME280;34170;54.364;18.582;2023-04-15T06:28:26;99846.88;;;10.88;100.00
48364;BME280;34170;54.364;18.582;2023-04-15T06:30:55;99845.34;;;10.86;100.00
48364;BME280;34170;54.364;18.582;2023-04-15T06:33:24;99820.72;;;10.99;99.99
48364;BME280;34170;54.364;18.582;2023-04-15T06:35:52;99824.38;;;10.90;100.00
48364;BME280;34170;54.364;18.582;2023-04-15T06:38:21;99847.09;;;10.95;100.00
48364;BME280;34170;54.364;18.582;2023-04-15T06:40:50;99850.22;;;10.82;100.00
48364;BME280;34170;54.364;18.582;2023-04-15T06:43:19;99864.22;;;10.68;100.00
48364;BME280;34170;54.364;18.582;2023-04-15T06:45:48;99856.00;;;10.96;99.44
48364;BME280;34170;54.364;18.582;2023-04-15T06:48:17;99857.66;;;10.71;100.00
48364;BME280;34170;54.364;18.582;2023-04-15T06:50:45;99848.97;;;11.03;98.98
48364;BME280;34170;54.364;18.582;2023-04-15T06:53:14;99870.81;;;11.00;98.18
48364;BME280;34170;54.364;18.582;2023-04-15T06:55:44;99843.97;;;11.08;96.87
48364;BME280;34170;54.364;18.582;2023-04-15T06:58:13;99862.13;;;11.06;98.11
48364;BME280;34170;54.364;18.582;2023-04-15T07:00:41;99862.75;;;11.26;95.40
48364;BME280;34170;54.364;18.582;2023-04-15T07:03:11;99860.03;;;11.18;96.84
48364;BME280;34170;54.364;18.582;2023-04-15T07:05:40;99864.88;;;11.14;96.42
48364;BME280;34170;54.364;18.582;2023-04-15T07:08:09;99841.22;;;11.00;96.39
48364;BME280;34170;54.364;18.582;2023-04-15T07:10:37;99873.28;;;11.19;96.59
48364;BME280;34170;54.364;18.582;2023-04-15T07:13:06;99842.91;;;11.27;94.75
48364;BME280;34170;54.364;18.582;2023-04-15T07:15:36;99844.59;;;11.71;92.88
48364;BME280;34170;54.364;18.582;2023-04-15T07:18:04;99851.16;;;11.68;92.13
48364;BME280;34170;54.364;18.582;2023-04-15T07:20:33;99870.53;;;11.80;91.83
48364;BME280;34170;54.364;18.582;2023-04-15T07:23:02;99845.75;;;10.99;95.04
48364;BME280;34170;54.364;18.582;2023-04-15T07:25:31;99881.78;;;11.33;94.71
48364;BME280;34170;54.364;18.582;2023-04-15T07:28:00;99844.06;;;11.67;92.99
48364;BME280;34170;54.364;18.582;2023-04-15T07:30:29;99880.88;;;11.50;93.25
48364;BME280;34170;54.364;18.582;2023-04-15T07:32:59;99861.28;;;11.05;94.68
48364;BME280;34170;54.364;18.582;2023-04-15T07:35:27;99870.00;;;11.34;94.34
48364;BME280;34170;54.364;18.582;2023-04-15T07:37:56;99879.75;;;11.00;95.75
48364;BME280;34170;54.364;18.582;2023-04-15T07:40:25;99882.69;;;11.15;96.74
48364;BME280;34170;54.364;18.582;2023-04-15T07:42:55;99856.13;;;11.55;92.91
48364;BME280;34170;54.364;18.582;2023-04-15T07:45:24;99887.03;;;11.34;95.12
48364;BME280;34170;54.364;18.582;2023-04-15T07:47:53;99870.59;;;11.19;95.45
48364;BME280;34170;54.364;18.582;2023-04-15T07:50:23;99869.72;;;10.84;97.02
48364;BME280;34170;54.364;18.582;2023-04-15T07:52:52;99874.63;;;11.50;94.24
48364;BME280;34170;54.364;18.582;2023-04-15T07:55:21;99887.09;;;11.51;93.52
48364;BME280;34170;54.364;18.582;2023-04-15T07:57:50;99881.91;;;11.57;93.53
48364;BME280;34170;54.364;18.582;2023-04-15T08:00:19;99885.34;;;11.76;92.31
48364;BME280;34170;54.364;18.582;2023-04-15T08:02:48;99878.78;;;11.78;91.72
48364;BME280;34170;54.364;18.582;2023-04-15T08:05:17;99881.75;;;11.93;90.11
48364;BME280;34170;54.364;18.582;2023-04-15T08:07:46;99846.38;;;11.19;93.24
48364;BME280;34170;54.364;18.582;2023-04-15T08:10:15;99852.59;;;11.54;92.19
48364;BME280;34170;54.364;18.582;2023-04-15T08:12:44;99856.97;;;11.13;94.08
48364;BME280;34170;54.364;18.582;2023-04-15T08:15:16;99886.69;;;11.37;93.97
48364;BME280;34170;54.364;18.582;2023-04-15T08:17:45;99886.00;;;11.70;92.20
48364;BME280;34170;54.364;18.582;2023-04-15T08:20:14;99883.00;;;11.81;91.42
48364;BME280;34170;54.364;18.582;2023-04-15T08:22:43;99885.81;;;11.63;90.98
48364;BME280;34170;54.364;18.582;2023-04-15T08:25:11;99884.50;;;12.26;88.71
48364;BME280;34170;54.364;18.582;2023-04-15T08:27:40;99868.94;;;12.04;89.36
48364;BME280;34170;54.364;18.582;2023-04-15T08:30:09;99883.97;;;11.03;93.84
48364;BME280;34170;54.364;18.582;2023-04-15T08:32:38;99860.94;;;11.35;92.71
48364;BME280;34170;54.364;18.582;2023-04-15T08:35:07;99890.72;;;11.76;91.75
48364;BME280;34170;54.364;18.582;2023-04-15T08:37:36;99883.13;;;11.63;93.24
48364;BME280;34170;54.364;18.582;2023-04-15T08:40:05;99883.28;;;11.61;92.33
48364;BME280;34170;54.364;18.582;2023-04-15T08:42:40;99891.50;;;11.60;92.28
48364;BME280;34170;54.364;18.582;2023-04-15T08:45:11;99882.81;;;11.66;92.58
48364;BME280;34170;54.364;18.582;2023-04-15T08:47:42;99871.13;;;12.00;89.79
48364;BME280;34170;54.364;18.582;2023-04-15T08:50:13;99888.16;;;12.00;89.94
48364;BME280;34170;54.364;18.582;2023-04-15T08:52:43;99879.72;;;11.95;89.55
48364;BME280;34170;54.364;18.582;2023-04-15T08:55:12;99888.88;;;11.68;90.02
48364;BME280;34170;54.364;18.582;2023-04-15T08:57:42;99905.78;;;11.52;91.78
48364;BME280;34170;54.364;18.582;2023-04-15T09:00:11;99867.63;;;11.65;90.39
48364;BME280;34170;54.364;18.582;2023-04-15T09:02:40;99869.66;;;11.29;92.49
48364;BME280;34170;54.364;18.582;2023-04-15T09:05:09;99877.88;;;11.61;91.88
48364;BME280;34170;54.364;18.582;2023-04-15T09:07:38;99896.69;;;11.19;95.64
48364;BME280;34170;54.364;18.582;2023-04-15T09:10:07;99893.44;;;11.76;92.69
48364;BME280;34170;54.364;18.582;2023-04-15T09:12:36;99907.28;;;11.89;91.71
48364;BME280;34170;54.364;18.582;2023-04-15T09:15:05;99906.38;;;12.23;90.04
48364;BME280;34170;54.364;18.582;2023-04-15T09:17:41;99852.69;;;11.36;92.19
48364;BME280;34170;54.364;18.582;2023-04-15T09:20:12;99896.38;;;11.91;91.67
48364;BME280;34170;54.364;18.582;2023-04-15T09:22:46;99908.34;;;11.28;95.20
48364;BME280;34170;54.364;18.582;2023-04-15T09:28:00;99906.09;;;11.49;94.17
48364;BME280;34170;54.364;18.582;2023-04-15T09:30:29;99901.09;;;11.54;94.63
48364;BME280;34170;54.364;18.582;2023-04-15T09:33:00;99904.66;;;11.29;95.12
48364;BME280;34170;54.364;18.582;2023-04-15T09:35:29;99895.03;;;11.52;94.38
48364;BME280;34170;54.364;18.582;2023-04-15T09:38:06;99869.97;;;11.25;95.32
48364;BME280;34170;54.364;18.582;2023-04-15T09:40:36;99895.09;;;11.69;93.64
48364;BME280;34170;54.364;18.582;2023-04-15T09:43:07;99891.28;;;11.88;92.44
48364;BME280;34170;54.364;18.582;2023-04-15T09:45:36;99903.38;;;11.83;92.59
48364;BME280;34170;54.364;18.582;2023-04-15T09:48:34;99901.59;;;11.92;91.75
48364;BME280;34170;54.364;18.582;2023-04-15T09:51:02;99899.25;;;11.97;90.22
48364;BME280;34170;54.364;18.582;2023-04-15T09:53:34;99891.44;;;11.17;95.62
48364;BME280;34170;54.364;18.582;2023-04-15T09:56:03;99899.84;;;11.83;92.90
48364;BME280;34170;54.364;18.582;2023-04-15T09:58:34;99908.88;;;12.08;90.95
48364;BME280;34170;54.364;18.582;2023-04-15T10:01:05;99925.28;;;11.89;90.96
48364;BME280;34170;54.364;18.582;2023-04-15T10:03:37;99905.91;;;11.85;91.21
48364;BME280;34170;54.364;18.582;2023-04-15T10:06:09;99916.31;;;11.72;93.87
48364;BME280;34170;54.364;18.582;2023-04-15T10:08:38;99908.72;;;11.67;92.46
48364;BME280;34170;54.364;18.582;2023-04-15T10:11:09;99889.19;;;11.31;93.31
48364;BME280;34170;54.364;18.582;2023-04-15T10:13:38;99908.19;;;11.63;91.75
48364;BME280;34170;54.364;18.582;2023-04-15T10:16:12;99883.47;;;11.34;93.65
48364;BME280;34170;54.364;18.582;2023-04-15T10:18:45;99911.34;;;11.51;92.69
48364;BME280;34170;54.364;18.582;2023-04-15T10:21:13;99898.34;;;10.94;94.81
48364;BME280;34170;54.364;18.582;2023-04-15T10:23:46;99914.78;;;11.35;94.16
48364;BME280;34170;54.364;18.582;2023-04-15T10:26:15;99917.59;;;11.25;95.72
48364;BME280;34170;54.364;18.582;2023-04-15T10:28:48;99909.28;;;11.87;91.74
48364;BME280;34170;54.364;18.582;2023-04-15T10:31:17;99920.66;;;11.99;91.25
48364;BME280;34170;54.364;18.582;2023-04-15T10:33:48;99914.94;;;11.68;92.36
48364;BME280;34170;54.364;18.582;2023-04-15T10:36:18;99905.53;;;11.72;92.92
48364;BME280;34170;54.364;18.582;2023-04-15T10:38:47;99915.03;;;11.84;92.15
48364;BME280;34170;54.364;18.582;2023-04-15T10:43:53;99912.81;;;12.30;91.99
48364;BME280;34170;54.364;18.582;2023-04-15T10:46:38;99909.78;;;11.48;94.24
48364;BME280;34170;54.364;18.582;2023-04-15T10:49:11;99883.00;;;11.81;93.16
48364;BME280;34170;54.364;18.582;2023-04-15T10:51:43;99909.59;;;11.76;92.93
48364;BME280;34170;54.364;18.582;2023-04-15T10:54:15;99911.53;;;12.00;91.38
48364;BME280;34170;54.364;18.582;2023-04-15T10:56:44;99908.13;;;12.32;88.52
48364;BME280;34170;54.364;18.582;2023-04-15T10:59:14;99919.06;;;11.88;91.62
48364;BME280;34170;54.364;18.582;2023-04-15T11:01:55;99922.22;;;11.75;92.01
48364;BME280;34170;54.364;18.582;2023-04-15T11:08:00;99922.34;;;11.66;91.40
48364;BME280;34170;54.364;18.582;2023-04-15T11:13:01;99921.22;;;12.19;88.63
48364;BME280;34170;54.364;18.582;2023-04-15T11:15:40;99917.59;;;11.59;90.03
48364;BME280;34170;54.364;18.582;2023-04-15T11:18:14;99888.19;;;11.74;89.58
48364;BME280;34170;54.364;18.582;2023-04-15T11:20:52;99908.78;;;11.83;92.53
48364;BME280;34170;54.364;18.582;2023-04-15T11:23:36;99911.78;;;12.15;89.66
48364;BME280;34170;54.364;18.582;2023-04-15T11:26:08;99913.16;;;12.27;89.87
48364;BME280;34170;54.364;18.582;2023-04-15T11:28:39;99893.59;;;12.33;87.51
48364;BME280;34170;54.364;18.582;2023-04-15T11:31:14;99916.66;;;12.19;89.51
48364;BME280;34170;54.364;18.582;2023-04-15T11:33:55;99900.16;;;12.23;88.12
48364;BME280;34170;54.364;18.582;2023-04-15T11:36:26;99918.00;;;12.15;90.08
48364;BME280;34170;54.364;18.582;2023-04-15T11:38:57;99899.13;;;11.73;89.88
48364;BME280;34170;54.364;18.582;2023-04-15T11:41:26;99918.78;;;11.99;91.35
48364;BME280;34170;54.364;18.582;2023-04-15T11:43:55;99892.97;;;11.89;91.08
48364;BME280;34170;54.364;18.582;2023-04-15T11:46:29;99923.72;;;12.12;89.48
48364;BME280;34170;54.364;18.582;2023-04-15T11:48:59;99908.28;;;12.31;88.61
48364;BME280;34170;54.364;18.582;2023-04-15T11:51:31;99923.31;;;12.91;87.37
48364;BME280;34170;54.364;18.582;2023-04-15T11:53:59;99940.75;;;12.21;87.58
48364;BME280;34170;54.364;18.582;2023-04-15T11:56:27;99939.53;;;12.07;89.48
48364;BME280;34170;54.364;18.582;2023-04-15T11:58:56;99938.56;;;12.16;89.05
48364;BME280;34170;54.364;18.582;2023-04-15T12:01:33;99913.69;;;12.55;86.92
48364;BME280;34170;54.364;18.582;2023-04-15T12:04:01;99901.69;;;12.25;87.50
48364;BME280;34170;54.364;18.582;2023-04-15T12:06:32;99937.63;;;12.50;85.79
48364;BME280;34170;54.364;18.582;2023-04-15T12:09:15;99922.63;;;12.39;86.66
48364;BME280;34170;54.364;18.582;2023-04-15T12:11:48;99921.84;;;12.05;89.66
48364;BME280;34170;54.364;18.582;2023-04-15T12:14:26;99907.97;;;12.58;86.43
48364;BME280;34170;54.364;18.582;2023-04-15T12:16:58;99956.88;;;13.05;83.79
48364;BME280;34170;54.364;18.582;2023-04-15T12:19:38;99934.94;;;12.75;84.21
48364;BME280;34170;54.364;18.582;2023-04-15T12:24:38;99955.19;;;12.79;87.86
48364;BME280;34170;54.364;18.582;2023-04-15T12:27:12;99931.06;;;12.61;85.50
48364;BME280;34170;54.364;18.582;2023-04-15T12:29:41;99923.31;;;12.58;87.14
48364;BME280;34170;54.364;18.582;2023-04-15T12:32:12;99947.25;;;12.61;87.38
48364;BME280;34170;54.364;18.582;2023-04-15T12:34:43;99952.72;;;12.27;88.35
48364;BME280;34170;54.364;18.582;2023-04-15T12:37:12;99955.75;;;11.81;93.16
48364;BME280;34170;54.364;18.582;2023-04-15T12:39:42;99974.22;;;12.53;89.05
48364;BME280;34170;54.364;18.582;2023-04-15T12:42:10;99952.50;;;12.04;90.49
48364;BME280;34170;54.364;18.582;2023-04-15T12:44:39;99926.28;;;11.45;93.88
48364;BME280;34170;54.364;18.582;2023-04-15T12:47:07;99955.91;;;11.45;93.77
48364;BME280;34170;54.364;18.582;2023-04-15T12:49:35;99963.53;;;11.84;92.88
48364;BME280;34170;54.364;18.582;2023-04-15T12:52:04;99968.38;;;11.80;93.24
48364;BME280;34170;54.364;18.582;2023-04-15T12:54:32;99989.00;;;11.63;93.84
48364;BME280;34170;54.364;18.582;2023-04-15T12:56:59;99979.41;;;11.61;94.19
48364;BME280;34170;54.364;18.582;2023-04-15T12:59:27;99973.88;;;11.18;97.73
48364;BME280;34170;54.364;18.582;2023-04-15T13:01:55;99973.94;;;11.53;97.21
48364;BME280;34170;54.364;18.582;2023-04-15T13:04:23;99980.50;;;11.50;95.79
48364;BME280;34170;54.364;18.582;2023-04-15T13:06:51;99984.00;;;11.24;97.49
48364;BME280;34170;54.364;18.582;2023-04-15T13:09:18;99977.28;;;11.47;96.83
48364;BME280;34170;54.364;18.582;2023-04-15T13:11:45;99929.31;;;10.98;98.01
48364;BME280;34170;54.364;18.582;2023-04-15T13:14:13;99971.50;;;11.15;98.11
48364;BME280;34170;54.364;18.582;2023-04-15T13:16:40;99976.00;;;11.33;98.54
48364;BME280;34170;54.364;18.582;2023-04-15T13:19:07;99956.41;;;11.22;98.18